createdAt,value
2022-09-24T00:03:08.968Z,1004.166
2022-09-24T00:23:07.781Z,1004.006
2022-09-24T00:43:07.588Z,1003.949
2022-09-24T01:03:08.338Z,1003.892
2022-09-24T01:23:07.354Z,1003.791
2022-09-24T01:43:08.098Z,1003.773
2022-09-24T02:03:08.779Z,1003.56
2022-09-24T02:23:07.630Z,1003.637
2022-09-24T02:43:07.359Z,1003.519
2022-09-24T03:03:08.433Z,1003.347
2022-09-24T03:23:07.338Z,1003.299
2022-09-24T03:43:08.068Z,1003.201
2022-09-24T04:03:08.986Z,1003.194
2022-09-24T04:23:07.935Z,1003.143
2022-09-24T04:43:08.128Z,1003.087
2022-09-24T05:03:09.118Z,1003.095
2022-09-24T05:23:07.999Z,1003.306
2022-09-24T05:43:07.924Z,1003.362
2022-09-24T06:03:09.093Z,1003.48
2022-09-24T06:23:07.963Z,1003.507
2022-09-24T06:43:07.999Z,1003.47
2022-09-24T07:03:08.857Z,1003.459
2022-09-24T07:23:07.706Z,1003.415
2022-09-24T07:43:07.568Z,1003.598
2022-09-24T08:03:08.614Z,1003.639
2022-09-24T08:23:07.498Z,1003.774
2022-09-24T08:43:08.823Z,1003.797
2022-09-24T09:03:08.892Z,1003.886
2022-09-24T09:23:07.779Z,1003.962
2022-09-24T09:43:07.681Z,1004.069
2022-09-24T10:03:09.112Z,1003.977
2022-09-24T10:23:08.110Z,1003.886
2022-09-24T10:43:08.092Z,1003.846
2022-09-24T11:03:09.462Z,1003.923
2022-09-24T11:23:07.390Z,1003.861
2022-09-24T11:43:07.430Z,1003.815
2022-09-24T12:03:08.643Z,1003.729
2022-09-24T12:23:07.464Z,1003.64
2022-09-24T12:43:07.483Z,1003.736
2022-09-24T13:03:08.675Z,1003.644
2022-09-24T13:23:07.564Z,1003.54
2022-09-24T13:43:07.646Z,1003.593
2022-09-24T14:03:08.632Z,1003.644
2022-09-24T14:23:07.606Z,1003.681
2022-09-24T14:43:07.680Z,1003.718
2022-09-24T15:03:08.566Z,1003.704
2022-09-24T15:23:07.449Z,1003.751
2022-09-24T15:43:07.524Z,1003.756
2022-09-24T16:03:08.937Z,1003.833
2022-09-24T16:23:07.865Z,1003.784
2022-09-24T16:43:08.023Z,1003.915
2022-09-24T17:03:09.305Z,1003.906
2022-09-24T17:23:07.514Z,1003.866
2022-09-24T17:43:07.548Z,1003.924
2022-09-24T18:03:08.761Z,1003.96
2022-09-24T18:23:07.781Z,1004.045
2022-09-24T18:43:07.859Z,1004.136
2022-09-24T19:03:09.414Z,1004.229
2022-09-24T19:23:07.297Z,1004.31
2022-09-24T19:43:07.650Z,1004.391
2022-09-24T20:03:08.911Z,1004.388
2022-09-24T20:23:07.852Z,1004.492
2022-09-24T20:43:08.094Z,1004.477
2022-09-24T21:03:46.277Z,1004.516
2022-09-24T21:23:07.398Z,1004.528
2022-09-24T21:43:07.657Z,1004.614
2022-09-24T22:03:08.780Z,1004.629
2022-09-24T22:23:07.553Z,1004.627
2022-09-24T22:43:07.300Z,1004.545
2022-09-24T23:03:07.971Z,1004.597
2022-09-24T23:23:07.767Z,1004.581
2022-09-24T23:43:07.568Z,1004.494
